Time;durP1;ratioP1;P1;durP2;ratioP2;P2;SDS_P1;SDS_P2;PMS_P1;PMS_P2;Temp;Humidity;BMP_temperature;BMP_pressure;BME280_temperature;BME280_humidity;BME280_pressure;Samples;Min_cycle;Max_cycle;Signal;HPM_P1;HPM_P2
2021/03/08 00:13:19;;;;;;;19.23;11.93;;;5.10;63.90;;;;;;4952165;29;20039;-96
2021/03/08 00:20:55;;;;;;;16.33;10.48;;;5.20;64.10;;;;;;5728449;23;20516;-95
2021/03/08 00:23:21;;;;;;;17.63;10.73;;;5.20;64.20;;;;;;4971863;28;20029;-94
2021/03/08 00:25:46;;;;;;;15.90;9.88;;;5.20;64.30;;;;;;4990972;28;20022;-96
2021/03/08 00:28:12;;;;;;;20.60;11.68;;;5.20;64.30;;;;;;4994623;28;20088;-95
2021/03/08 00:30:37;;;;;;;15.02;9.00;;;5.20;64.40;;;;;;4997740;28;20026;-96
2021/03/08 00:33:03;;;;;;;16.23;9.63;;;5.20;64.40;;;;;;4997228;28;20026;-96
2021/03/08 00:35:29;;;;;;;12.30;8.02;;;5.20;64.40;;;;;;4996383;28;20032;-96
2021/03/08 00:37:55;;;;;;;17.27;10.25;;;5.20;64.40;;;;;;5006901;28;20069;-96
2021/03/08 00:40:22;;;;;;;16.58;10.35;;;5.20;64.50;;;;;;5009593;28;20022;-96
2021/03/08 00:42:47;;;;;;;18.88;11.43;;;5.20;64.60;;;;;;5003812;28;20022;-96
2021/03/08 00:45:15;;;;;;;17.63;10.35;;;5.20;64.80;;;;;;5001040;28;20098;-96
2021/03/08 00:47:41;;;;;;;18.23;11.30;;;5.20;64.80;;;;;;4997553;28;20014;-95
2021/03/08 00:50:10;;;;;;;17.02;10.43;;;5.20;64.90;;;;;;4994301;28;20027;-95
2021/03/08 00:52:36;;;;;;;17.25;10.13;;;5.20;64.90;;;;;;4994406;28;20022;-95
2021/03/08 00:55:01;;;;;;;14.98;9.40;;;5.20;64.90;;;;;;4997912;28;20109;-96
2021/03/08 00:57:27;;;;;;;15.15;9.20;;;5.20;64.90;;;;;;4995292;28;20027;-94
2021/03/08 00:59:52;;;;;;;13.77;8.68;;;5.20;64.80;;;;;;4995636;28;20026;-96
2021/03/08 01:02:18;;;;;;;16.05;9.88;;;5.20;64.90;;;;;;4995437;28;20054;-96
2021/03/08 01:04:43;;;;;;;15.38;9.15;;;5.20;64.90;;;;;;4995070;28;20053;-96
2021/03/08 01:07:09;;;;;;;16.85;10.40;;;5.20;65.00;;;;;;4996976;28;20038;-96
2021/03/08 01:09:42;;;;;;;19.90;10.30;;;5.30;65.00;;;;;;5007256;28;20022;-96
2021/03/08 01:12:08;;;;;;;11.20;7.55;;;5.30;65.00;;;;;;5001352;28;20026;-95
2021/03/08 01:14:34;;;;;;;13.48;8.50;;;5.30;65.00;;;;;;4997112;28;20529;-96
2021/03/08 01:17:01;;;;;;;14.75;9.18;;;5.30;65.00;;;;;;5008484;28;20082;-96
2021/03/08 01:19:30;;;;;;;17.55;9.95;;;5.30;65.00;;;;;;5007411;28;20050;-96
2021/03/08 01:21:56;;;;;;;19.10;10.10;;;5.30;65.00;;;;;;5001693;28;20030;-96
2021/03/08 01:24:22;;;;;;;13.35;8.70;;;5.30;65.10;;;;;;5015391;28;20041;-96
2021/03/08 01:26:47;;;;;;;13.70;8.00;;;5.30;65.60;;;;;;5000499;28;20026;-96
2021/03/08 01:29:14;;;;;;;12.88;7.95;;;5.30;65.20;;;;;;4992711;28;20045;-96
2021/03/08 01:31:40;;;;;;;14.80;8.40;;;5.30;65.20;;;;;;4993668;28;20097;-95
2021/03/08 01:34:05;;;;;;;16.20;9.50;;;5.40;65.30;;;;;;4992845;28;20104;-96
2021/03/08 01:36:31;;;;;;;15.88;9.85;;;5.40;65.20;;;;;;4993812;28;20015;-94
2021/03/08 01:38:56;;;;;;;15.73;9.48;;;5.40;65.10;;;;;;4993160;28;20056;-94
2021/03/08 01:41:23;;;;;;;11.70;7.30;;;5.40;65.10;;;;;;5001176;28;20010;-96
2021/03/08 01:43:49;;;;;;;15.73;8.07;;;5.40;65.20;;;;;;4998546;28;20040;-96
2021/03/08 01:46:15;;;;;;;14.48;8.43;;;5.40;65.30;;;;;;4994311;28;20018;-96
2021/03/08 01:48:40;;;;;;;17.88;10.65;;;5.40;65.30;;;;;;4987036;28;20441;-94
2021/03/08 01:51:06;;;;;;;17.13;10.32;;;5.50;65.40;;;;;;4997256;28;20179;-96
2021/03/08 01:53:35;;;;;;;13.57;8.80;;;5.40;65.30;;;;;;5000087;28;20490;-95
2021/03/08 01:56:01;;;;;;;14.90;8.88;;;5.40;65.30;;;;;;4983596;28;20054;-96
2021/03/08 01:58:40;;;;;;;14.45;9.10;;;5.40;65.30;;;;;;4999935;28;20052;-95
2021/03/08 02:01:06;;;;;;;13.77;8.30;;;5.40;65.50;;;;;;5012665;28;20034;-95
2021/03/08 02:03:32;;;;;;;13.90;8.40;;;5.40;65.40;;;;;;5011726;28;20035;-95
2021/03/08 02:05:58;;;;;;;14.02;8.35;;;5.40;65.50;;;;;;4994327;28;20492;-94
2021/03/08 02:08:25;;;;;;;16.23;9.55;;;5.40;65.40;;;;;;4994296;28;20030;-95
2021/03/08 02:10:51;;;;;;;14.27;8.68;;;5.50;65.50;;;;;;4993604;28;20023;-95
2021/03/08 02:13:38;;;;;;;15.20;8.77;;;5.50;65.50;;;;;;4993277;28;20536;-95
2021/03/08 02:16:11;;;;;;;16.00;8.80;;;5.50;65.60;;;;;;4974908;28;20058;-95
2021/03/08 02:19:01;;;;;;;16.45;9.27;;;5.50;65.50;;;;;;4985769;28;20050;-96
2021/03/08 02:21:55;;;;;;;12.80;8.30;;;5.50;65.50;;;;;;4993781;28;20031;-94
2021/03/08 02:24:41;;;;;;;15.32;8.90;;;5.50;65.40;;;;;;4991628;28;20037;-93
2021/03/08 02:27:33;;;;;;;16.13;9.30;;;5.50;65.40;;;;;;4993373;28;20469;-93
2021/03/08 02:30:07;;;;;;;18.95;10.50;;;5.50;65.40;;;;;;4986817;28;20030;-92
2021/03/08 02:32:36;;;;;;;16.27;9.55;;;5.50;65.40;;;;;;4993037;28;20048;-94
2021/03/08 02:35:17;;;;;;;15.30;9.10;;;5.50;65.50;;;;;;4993179;28;20527;-93
2021/03/08 02:37:52;;;;;;;15.30;9.70;;;5.50;65.50;;;;;;4993211;28;20038;-95
2021/03/08 02:40:24;;;;;;;16.65;10.05;;;5.40;65.50;;;;;;4993068;28;20027;-94
2021/03/08 02:42:54;;;;;;;16.25;10.23;;;5.40;65.50;;;;;;4996302;28;20040;-92
2021/03/08 02:45:22;;;;;;;14.27;8.90;;;5.40;65.50;;;;;;4995724;28;20027;-93
2021/03/08 02:47:49;;;;;;;16.65;10.20;;;5.50;65.60;;;;;;4985661;28;20026;-94
2021/03/08 02:50:17;;;;;;;18.20;11.35;;;5.50;65.50;;;;;;4996443;28;20069;-94
2021/03/08 02:52:57;;;;;;;16.77;9.65;;;5.50;65.50;;;;;;4996248;28;20022;-96
2021/03/08 03:03:07;;;;;;;18.80;11.63;;;5.50;65.80;;;;;;5206151;23;20046;-96
2021/03/08 03:05:36;;;;;;;21.77;13.05;;;5.50;65.70;;;;;;4980426;28;20035;-96
2021/03/08 03:08:03;;;;;;;16.45;9.93;;;5.50;65.70;;;;;;4998057;28;20011;-96
2021/03/08 03:10:32;;;;;;;21.73;12.73;;;5.40;65.80;;;;;;4997946;28;20050;-96
2021/03/08 03:15:39;;;;;;;21.02;11.70;;;5.40;65.90;;;;;;4982093;28;20051;-96
2021/03/08 03:18:09;;;;;;;20.00;12.20;;;5.40;66.00;;;;;;4987463;28;20133;-95
2021/03/08 03:23:12;;;;;;;19.55;11.23;;;5.40;66.00;;;;;;5004458;23;20041;-96
2021/03/08 03:25:39;;;;;;;22.42;13.05;;;5.40;66.00;;;;;;5017926;28;20003;-96
2021/03/08 03:28:10;;;;;;;18.92;11.65;;;5.40;66.20;;;;;;5004248;28;20038;-96
2021/03/08 03:30:36;;;;;;;22.58;12.85;;;5.40;66.20;;;;;;5001477;28;20023;-94
2021/03/08 03:33:02;;;;;;;20.23;11.95;;;5.30;66.20;;;;;;4995777;28;20488;-95
2021/03/08 03:35:29;;;;;;;20.88;12.32;;;5.30;66.30;;;;;;4995393;28;20070;-94
2021/03/08 03:37:56;;;;;;;19.92;12.23;;;5.30;66.30;;;;;;4996140;28;20117;-95
2021/03/08 03:40:23;;;;;;;20.10;12.18;;;5.40;66.40;;;;;;4996656;28;20029;-96
2021/03/08 03:42:50;;;;;;;19.65;12.30;;;5.40;66.40;;;;;;5000341;28;20029;-96
2021/03/08 03:45:18;;;;;;;19.20;11.20;;;5.40;66.40;;;;;;4998104;28;20026;-96
2021/03/08 03:47:44;;;;;;;18.15;10.85;;;5.40;66.40;;;;;;4999990;28;20046;-95
2021/03/08 03:50:12;;;;;;;16.65;10.15;;;5.40;66.40;;;;;;4996489;28;20025;-96
2021/03/08 03:52:38;;;;;;;16.85;10.02;;;5.40;66.30;;;;;;4998573;28;20497;-96
2021/03/08 03:55:06;;;;;;;17.95;10.30;;;5.40;66.40;;;;;;4984111;28;20031;-96
2021/03/08 03:57:39;;;;;;;18.05;10.52;;;5.40;66.30;;;;;;5002695;28;20046;-96
2021/03/08 04:00:11;;;;;;;17.05;10.63;;;5.50;66.30;;;;;;5014047;28;20030;-95
2021/03/08 04:03:29;;;;;;;18.55;10.00;;;5.40;66.30;;;;;;5013425;28;20018;-96
2021/03/08 04:05:57;;;;;;;17.08;10.40;;;5.50;66.50;;;;;;5014006;28;20018;-96
2021/03/08 04:08:25;;;;;;;18.33;10.35;;;5.40;66.40;;;;;;5005826;28;20122;-93
2021/03/08 04:10:53;;;;;;;19.52;11.90;;;5.40;66.40;;;;;;5006811;28;20018;-93
2021/03/08 04:13:22;;;;;;;18.75;11.32;;;5.40;66.50;;;;;;5006511;28;20487;-93
2021/03/08 04:15:47;;;;;;;19.13;11.13;;;5.40;66.50;;;;;;4996662;28;20034;-94
2021/03/08 04:18:15;;;;;;;17.08;11.48;;;5.40;66.50;;;;;;4999089;28;20045;-96
2021/03/08 04:20:42;;;;;;;19.40;11.95;;;5.40;66.60;;;;;;4997703;28;20113;-95
2021/03/08 04:23:12;;;;;;;19.80;11.90;;;5.40;66.70;;;;;;4995574;28;20054;-94
2021/03/08 04:25:40;;;;;;;17.08;10.48;;;5.40;66.70;;;;;;4993913;28;20097;-95
2021/03/08 04:28:07;;;;;;;19.23;12.02;;;5.40;66.70;;;;;;4995745;28;20231;-96
2021/03/08 04:30:33;;;;;;;21.27;12.38;;;5.40;66.60;;;;;;4983620;28;20019;-96
2021/03/08 04:32:59;;;;;;;19.85;12.45;;;5.40;66.70;;;;;;4988527;28;20054;-96
2021/03/08 04:35:30;;;;;;;20.55;11.43;;;5.40;66.80;;;;;;4999732;28;20029;-96
2021/03/08 04:37:59;;;;;;;21.23;12.32;;;5.40;66.90;;;;;;5000245;28;20034;-96
2021/03/08 04:40:25;;;;;;;17.45;10.70;;;5.30;67.00;;;;;;4995009;28;20050;-96
2021/03/08 04:42:51;;;;;;;21.27;12.25;;;5.30;67.10;;;;;;4994305;28;20054;-96
2021/03/08 04:45:19;;;;;;;21.77;12.57;;;5.30;67.10;;;;;;4995005;28;20100;-95
2021/03/08 04:47:53;;;;;;;19.95;12.50;;;5.30;67.10;;;;;;5060965;23;20045;-96
2021/03/08 04:50:20;;;;;;;18.17;11.65;;;5.30;67.10;;;;;;4995699;28;20066;-96
2021/03/08 04:52:53;;;;;;;18.85;10.43;;;5.30;67.10;;;;;;5003183;28;20030;-96
2021/03/08 04:55:22;;;;;;;19.92;11.85;;;5.30;67.10;;;;;;5007255;28;20030;-96
2021/03/08 04:57:48;;;;;;;19.27;11.10;;;5.30;67.10;;;;;;4993877;28;20038;-95
2021/03/08 05:00:14;;;;;;;17.90;11.35;;;5.30;67.30;;;;;;4974923;28;20015;-94
2021/03/08 05:02:43;;;;;;;20.42;12.45;;;5.30;67.20;;;;;;4992398;28;20481;-92
2021/03/08 05:05:10;;;;;;;17.67;11.13;;;5.30;67.20;;;;;;4972762;28;20018;-94
2021/03/08 05:07:40;;;;;;;20.50;11.55;;;5.30;67.20;;;;;;4974486;28;20030;-91
2021/03/08 05:10:09;;;;;;;20.98;12.50;;;5.30;67.30;;;;;;4974860;28;20436;-92
2021/03/08 05:12:37;;;;;;;20.80;12.30;;;5.30;67.30;;;;;;4987327;28;20544;-91
2021/03/08 05:15:06;;;;;;;20.23;11.82;;;5.30;67.40;;;;;;4993280;28;20022;-91
2021/03/08 05:17:33;;;;;;;17.05;10.77;;;5.30;67.40;;;;;;4990866;28;20126;-93
2021/03/08 05:20:00;;;;;;;18.27;10.93;;;5.30;67.40;;;;;;4988024;28;20046;-92
2021/03/08 05:22:26;;;;;;;17.67;10.57;;;5.30;67.40;;;;;;4991711;28;20030;-93
2021/03/08 05:24:52;;;;;;;18.65;11.10;;;5.30;67.40;;;;;;4991038;28;20018;-91
2021/03/08 05:27:18;;;;;;;17.80;10.85;;;5.30;67.50;;;;;;4996268;28;20034;-95
2021/03/08 05:29:47;;;;;;;16.77;9.75;;;5.30;67.50;;;;;;4975539;28;20030;-96
2021/03/08 05:32:28;;;;;;;22.73;12.75;;;5.40;67.50;;;;;;4997448;28;20023;-96
2021/03/08 05:35:19;;;;;;;19.63;11.80;;;5.40;67.50;;;;;;5014639;28;20026;-96
2021/03/08 05:42:59;;;;;;;20.48;12.32;;;5.40;67.50;;;;;;4959218;28;20422;-96
2021/03/08 05:45:33;;;;;;;18.55;11.35;;;5.30;67.50;;;;;;4936975;29;20650;-95
2021/03/08 05:48:05;;;;;;;21.08;13.13;;;5.30;67.70;;;;;;4954405;29;20032;-94
2021/03/08 05:50:47;;;;;;;20.25;12.13;;;5.30;67.80;;;;;;4952511;29;20043;-96
2021/03/08 05:53:44;;;;;;;19.33;11.23;;;5.30;67.90;;;;;;4957685;29;20040;-96
2021/03/08 05:56:47;;;;;;;19.95;11.57;;;5.30;67.90;;;;;;4971803;29;20035;-97
2021/03/08 05:59:17;;;;;;;;;;;5.30;67.90;;;;;;4942054;29;20091;-96
2021/03/08 06:07:34;;;;;;;18.08;11.85;;;5.40;67.30;;;;;;4996265;23;20047;-95
2021/03/08 06:10:07;;;;;;;18.08;11.05;;;5.40;67.80;;;;;;4975023;28;20057;-96
2021/03/08 06:12:36;;;;;;;;;;;5.40;67.70;;;;;;5005510;28;20022;-96
2021/03/08 06:15:14;;;;;;;17.85;11.35;;;5.40;67.70;;;;;;4994452;28;19949;-95
2021/03/08 06:17:40;;;;;;;18.35;10.85;;;5.40;67.70;;;;;;4982328;28;20146;-94
2021/03/08 06:20:07;;;;;;;17.63;9.70;;;5.40;67.70;;;;;;4992425;28;20054;-94
2021/03/08 06:22:34;;;;;;;18.10;11.60;;;5.50;67.80;;;;;;4996973;28;20035;-94
2021/03/08 06:25:00;;;;;;;18.20;11.90;;;5.50;67.80;;;;;;4996348;28;20018;-94
2021/03/08 06:27:26;;;;;;;24.23;14.43;;;5.50;67.80;;;;;;4995647;28;20053;-95
2021/03/08 06:29:53;;;;;;;20.60;12.63;;;5.50;67.80;;;;;;5002439;28;20533;-93
2021/03/08 06:32:19;;;;;;;19.10;11.38;;;5.50;67.90;;;;;;5002219;28;20037;-90
2021/03/08 06:34:45;;;;;;;19.02;11.85;;;5.50;67.90;;;;;;4996218;28;20074;-92
2021/03/08 06:37:12;;;;;;;20.08;11.48;;;5.50;67.80;;;;;;4982662;28;20023;-91
2021/03/08 06:39:40;;;;;;;20.67;12.05;;;5.60;67.80;;;;;;4995151;28;20031;-93
2021/03/08 06:42:06;;;;;;;14.82;9.35;;;5.60;67.80;;;;;;4981280;28;20030;-93
2021/03/08 06:47:15;;;;;;;16.27;10.57;;;5.60;67.70;;;;;;5258724;23;20067;-94
2021/03/08 06:49:40;;;;;;;17.08;10.90;;;5.70;67.60;;;;;;4939099;29;20047;-95
2021/03/08 06:52:10;;;;;;;17.65;10.10;;;5.70;67.60;;;;;;4966999;28;20030;-96
2021/03/08 06:55:02;;;;;;;16.23;10.27;;;5.70;67.60;;;;;;4962845;28;20501;-96
2021/03/08 06:57:29;;;;;;;15.27;9.05;;;5.70;67.50;;;;;;4972315;28;20097;-95
2021/03/08 07:00:10;;;;;;;17.77;11.07;;;5.80;67.50;;;;;;4952392;28;20083;-96
2021/03/08 07:02:44;;;;;;;22.30;12.85;;;5.80;67.50;;;;;;4942800;29;20051;-96
2021/03/08 07:05:23;;;;;;;17.42;10.45;;;5.80;67.40;;;;;;4962597;29;20027;-95
2021/03/08 07:08:00;;;;;;;20.30;11.50;;;5.80;67.50;;;;;;4959675;29;20731;-95
2021/03/08 07:10:37;;;;;;;20.77;13.05;;;5.80;67.50;;;;;;4953198;28;20040;-95
2021/03/08 07:13:08;;;;;;;22.10;13.60;;;5.80;67.60;;;;;;4961961;28;20028;-96
2021/03/08 07:15:52;;;;;;;19.95;12.50;;;5.80;67.70;;;;;;4954385;29;20071;-93
2021/03/08 07:18:21;;;;;;;21.67;12.82;;;5.80;67.70;;;;;;4957042;28;20035;-83
2021/03/08 07:20:49;;;;;;;20.23;12.73;;;5.80;67.70;;;;;;4957263;29;20027;-93
2021/03/08 07:23:24;;;;;;;21.98;13.65;;;5.90;67.70;;;;;;4958595;28;20112;-91
2021/03/08 07:26:07;;;;;;;16.63;10.55;;;5.80;67.70;;;;;;4949708;28;20047;-94
2021/03/08 07:28:33;;;;;;;17.90;11.38;;;5.80;67.70;;;;;;4940465;29;20067;-92
2021/03/08 07:31:36;;;;;;;19.60;11.13;;;5.90;67.60;;;;;;4943553;28;20666;-96
2021/03/08 07:34:02;;;;;;;20.35;12.02;;;5.90;67.60;;;;;;4953544;29;20023;-93
2021/03/08 07:36:28;;;;;;;22.83;13.25;;;6.00;67.50;;;;;;4957680;29;20036;-94
2021/03/08 07:38:54;;;;;;;22.88;13.40;;;6.00;67.50;;;;;;4963264;28;20041;-96
2021/03/08 07:41:21;;;;;;;18.08;11.60;;;6.00;67.50;;;;;;4973957;28;20022;-94
2021/03/08 07:44:05;;;;;;;24.77;14.80;;;6.10;67.50;;;;;;4971500;28;20046;-94
2021/03/08 07:46:37;;;;;;;22.98;13.93;;;6.10;67.40;;;;;;4953056;28;20528;-95
2021/03/08 07:49:07;;;;;;;18.48;11.30;;;6.10;68.00;;;;;;4956709;29;20133;-95
2021/03/08 07:51:34;;;;;;;22.35;13.95;;;6.20;67.30;;;;;;4952001;29;20019;-94
2021/03/08 07:54:03;;;;;;;20.45;11.93;;;6.20;67.20;;;;;;4947148;28;20046;-94
2021/03/08 07:56:36;;;;;;;21.40;13.52;;;6.20;67.20;;;;;;4954217;28;20054;-96
2021/03/08 07:59:02;;;;;;;16.98;10.50;;;6.20;67.20;;;;;;4964802;28;20563;-91
2021/03/08 08:01:28;;;;;;;22.27;12.93;;;6.30;67.10;;;;;;4953356;28;20027;-91
2021/03/08 08:03:54;;;;;;;21.98;14.40;;;6.40;67.00;;;;;;4946818;29;20043;-88
2021/03/08 08:06:22;;;;;;;24.38;14.85;;;6.40;66.90;;;;;;4946239;29;20027;-89
2021/03/08 08:08:52;;;;;;;26.90;16.40;;;6.40;66.90;;;;;;4947910;28;20023;-89
2021/03/08 08:11:20;;;;;;;24.27;14.02;;;6.50;66.90;;;;;;4935089;29;20026;-90
2021/03/08 08:13:55;;;;;;;18.02;11.15;;;6.50;66.90;;;;;;4945263;29;20027;-90
2021/03/08 08:16:31;;;;;;;23.60;13.60;;;6.60;66.90;;;;;;4943764;28;20039;-88
2021/03/08 08:19:03;;;;;;;20.15;12.52;;;6.60;66.80;;;;;;4951079;29;20040;-89
2021/03/08 08:21:35;;;;;;;18.42;11.70;;;6.60;66.70;;;;;;4952616;28;20034;-87
2021/03/08 08:24:03;;;;;;;21.65;13.43;;;6.70;66.70;;;;;;4937651;29;20020;-88
2021/03/08 08:26:29;;;;;;;23.50;14.45;;;6.70;66.60;;;;;;4952226;29;20078;-88
2021/03/08 08:28:55;;;;;;;20.20;12.57;;;6.70;66.70;;;;;;4935842;28;20501;-90
2021/03/08 08:31:22;;;;;;;18.70;11.60;;;6.80;66.70;;;;;;4941120;29;20043;-91
2021/03/08 08:33:48;;;;;;;20.95;13.50;;;6.70;66.60;;;;;;4948879;28;20059;-91
2021/03/08 08:36:24;;;;;;;20.98;12.82;;;6.80;66.60;;;;;;4957993;28;20038;-91
2021/03/08 08:38:52;;;;;;;18.92;11.80;;;6.80;66.60;;;;;;4945995;29;20039;-91
2021/03/08 08:41:26;;;;;;;22.85;14.50;;;6.80;66.60;;;;;;4953762;29;20031;-90
2021/03/08 08:44:12;;;;;;;21.50;13.65;;;6.80;66.50;;;;;;4947165;29;20120;-92
2021/03/08 08:46:39;;;;;;;23.33;14.27;;;6.80;66.60;;;;;;4952986;29;20042;-92
2021/03/08 08:49:09;;;;;;;25.27;16.50;;;6.80;66.70;;;;;;4952581;29;20864;-95
2021/03/08 08:51:57;;;;;;;25.42;15.27;;;6.70;66.70;;;;;;4954747;28;20422;-92
2021/03/08 08:54:30;;;;;;;24.63;15.05;;;6.70;66.90;;;;;;4949505;28;20126;-92
2021/03/08 08:57:09;;;;;;;22.00;14.32;;;6.70;66.90;;;;;;4947254;29;20035;-90
2021/03/08 08:59:37;;;;;;;19.92;11.80;;;6.80;66.80;;;;;;4939470;29;20065;-90
2021/03/08 09:02:12;;;;;;;20.13;12.07;;;6.90;66.70;;;;;;4944984;29;20023;-89
2021/03/08 09:04:38;;;;;;;20.42;12.40;;;6.90;66.60;;;;;;4950256;29;20427;-91
2021/03/08 09:07:18;;;;;;;28.77;15.45;;;7.00;66.50;;;;;;4934438;29;20035;-89
2021/03/08 09:09:45;;;;;;;20.95;13.10;;;7.00;66.40;;;;;;4942859;29;20035;-91
2021/03/08 09:12:35;;;;;;;26.40;16.20;;;7.10;66.40;;;;;;4950192;28;20063;-88
2021/03/08 09:15:12;;;;;;;21.88;14.05;;;7.10;66.30;;;;;;4935290;28;20016;-88
2021/03/08 09:17:43;;;;;;;29.63;18.30;;;7.20;66.30;;;;;;4943409;28;20034;-91
2021/03/08 09:20:08;;;;;;;22.45;14.15;;;7.20;66.30;;;;;;4952667;29;20497;-92
2021/03/08 09:22:44;;;;;;;22.13;13.40;;;7.10;66.30;;;;;;4954086;29;20112;-88
2021/03/08 09:25:09;;;;;;;19.50;12.48;;;7.20;66.40;;;;;;4943496;28;20028;-89
2021/03/08 09:27:42;;;;;;;21.15;13.25;;;7.20;66.30;;;;;;4953752;29;20368;-89
2021/03/08 09:30:27;;;;;;;;;;;7.20;66.20;;;;;;4937546;29;20024;-88
2021/03/08 09:32:54;;;;;;;23.15;14.25;;;7.30;66.20;;;;;;4954547;29;19915;-93
2021/03/08 09:35:24;;;;;;;23.85;15.50;;;7.40;66.10;;;;;;4953179;29;20031;-92
2021/03/08 09:37:57;;;;;;;20.83;12.85;;;7.40;66.60;;;;;;4956432;28;20054;-95
2021/03/08 09:40:29;;;;;;;21.38;13.18;;;7.60;65.90;;;;;;4943371;29;20019;-91
2021/03/08 09:42:56;;;;;;;21.00;13.02;;;7.60;65.70;;;;;;4933545;29;20059;-93
2021/03/08 09:45:30;;;;;;;18.90;12.10;;;7.80;65.70;;;;;;4946704;29;20055;-90
2021/03/08 09:47:57;;;;;;;20.98;12.68;;;7.80;65.50;;;;;;4943152;28;20036;-89
2021/03/08 09:50:31;;;;;;;21.98;13.02;;;7.90;65.40;;;;;;4940881;28;20051;-90
2021/03/08 09:52:59;;;;;;;19.73;12.15;;;7.90;65.30;;;;;;4942466;28;20401;-91
2021/03/08 09:55:32;;;;;;;20.75;13.93;;;8.10;65.20;;;;;;4959847;28;20102;-90
2021/03/08 09:58:14;;;;;;;21.25;12.18;;;8.10;65.00;;;;;;4953458;28;20476;-88
2021/03/08 10:00:42;;;;;;;19.92;12.95;;;8.10;65.10;;;;;;4941892;28;20027;-86
2021/03/08 10:03:10;;;;;;;18.90;11.65;;;8.20;65.00;;;;;;4939573;28;20083;-89
2021/03/08 10:05:50;;;;;;;23.70;13.98;;;8.20;65.00;;;;;;4942282;29;20028;-87
2021/03/08 10:08:17;;;;;;;24.65;15.32;;;8.20;65.00;;;;;;4946644;28;20428;-90
2021/03/08 10:10:50;;;;;;;21.10;13.05;;;8.30;64.90;;;;;;4948300;28;20031;-90
2021/03/08 10:13:17;;;;;;;18.42;11.45;;;8.40;64.90;;;;;;4945614;28;20118;-88
2021/03/08 10:15:51;;;;;;;20.48;12.82;;;8.40;64.70;;;;;;4943103;29;20120;-87
2021/03/08 10:18:19;;;;;;;17.60;11.18;;;8.50;64.80;;;;;;4943974;28;20040;-88
2021/03/08 10:20:52;;;;;;;19.30;11.75;;;8.50;64.70;;;;;;4944974;29;20243;-86
2021/03/08 10:23:21;;;;;;;20.10;11.88;;;8.50;64.80;;;;;;4940638;28;20035;-88
2021/03/08 10:25:47;;;;;;;17.70;11.27;;;8.40;64.80;;;;;;4935606;28;20019;-88
2021/03/08 10:28:13;;;;;;;18.67;11.90;;;8.40;65.00;;;;;;4943590;28;20628;-89
2021/03/08 10:30:40;;;;;;;20.13;12.05;;;8.50;65.10;;;;;;4939512;28;20019;-87
2021/03/08 10:33:15;;;;;;;18.88;11.63;;;8.50;65.00;;;;;;4948527;28;20392;-87
2021/03/08 10:35:46;;;;;;;19.80;11.77;;;8.60;64.90;;;;;;4944287;29;20031;-88
2021/03/08 10:38:14;;;;;;;19.08;12.52;;;8.70;64.70;;;;;;4944634;28;20039;-88
2021/03/08 10:40:41;;;;;;;19.90;12.80;;;8.80;64.50;;;;;;4951615;28;20027;-88
2021/03/08 10:43:08;;;;;;;19.58;12.55;;;8.90;64.40;;;;;;4945643;28;20027;-87
2021/03/08 10:45:34;;;;;;;17.02;10.88;;;9.00;64.20;;;;;;4948882;28;20371;-89
2021/03/08 10:48:07;;;;;;;15.45;10.65;;;9.00;63.90;;;;;;4943196;28;20039;-89
2021/03/08 10:50:53;;;;;;;17.10;11.20;;;9.10;63.80;;;;;;4943562;28;20067;-88
2021/03/08 10:53:20;;;;;;;20.05;11.25;;;9.20;63.70;;;;;;4948377;28;20035;-88
2021/03/08 10:55:47;;;;;;;19.23;11.45;;;9.30;63.60;;;;;;4952829;28;20046;-87
2021/03/08 10:58:14;;;;;;;29.15;18.23;;;9.40;63.50;;;;;;4950097;28;20066;-87
2021/03/08 11:00:41;;;;;;;18.40;11.45;;;9.40;63.30;;;;;;4940681;28;22252;-86
2021/03/08 11:03:33;;;;;;;20.08;12.57;;;9.50;63.40;;;;;;4950712;28;20026;-88
2021/03/08 11:06:10;;;;;;;20.48;12.82;;;9.50;63.40;;;;;;4947068;28;20047;-86
2021/03/08 11:08:58;;;;;;;24.20;15.48;;;9.50;63.50;;;;;;4948182;29;20114;-88
2021/03/08 11:11:28;;;;;;;20.73;13.52;;;9.30;63.70;;;;;;4948986;28;20047;-89
2021/03/08 11:13:59;;;;;;;21.63;13.60;;;9.30;64.10;;;;;;4946348;28;20031;-88
2021/03/08 11:16:25;;;;;;;17.27;10.73;;;9.40;64.10;;;;;;4949662;28;20083;-88
2021/03/08 11:18:50;;;;;;;20.27;12.18;;;9.50;64.00;;;;;;4947336;29;20490;-88
2021/03/08 11:21:30;;;;;;;22.48;15.20;;;9.50;63.80;;;;;;4953198;28;20067;-88
2021/03/08 11:24:18;;;;;;;23.08;14.45;;;9.40;63.70;;;;;;4950285;28;20031;-88
2021/03/08 11:27:27;;;;;;;23.85;14.98;;;9.40;63.60;;;;;;4949929;28;21042;-89
2021/03/08 11:30:03;;;;;;;20.95;13.35;;;9.40;63.50;;;;;;4937899;29;20027;-89
2021/03/08 11:32:30;;;;;;;16.95;10.77;;;9.40;63.50;;;;;;4949591;29;20633;-90
2021/03/08 11:34:57;;;;;;;21.17;13.75;;;9.50;63.50;;;;;;4955097;28;20078;-89
2021/03/08 11:37:26;;;;;;;16.77;11.23;;;9.60;63.30;;;;;;4946765;28;20078;-90
2021/03/08 11:39:57;;;;;;;21.23;13.82;;;9.70;63.20;;;;;;4949883;29;20038;-90
2021/03/08 11:42:25;;;;;;;16.52;10.80;;;9.80;63.10;;;;;;4946816;29;20026;-89
2021/03/08 11:44:52;;;;;;;20.30;13.18;;;9.90;62.90;;;;;;4919546;29;20036;-90
2021/03/08 11:47:18;;;;;;;21.30;13.13;;;10.00;62.80;;;;;;4940066;29;20027;-87
2021/03/08 11:49:43;;;;;;;18.50;12.60;;;10.00;62.60;;;;;;4951347;28;20044;-89
2021/03/08 11:52:09;;;;;;;20.75;12.57;;;10.00;62.50;;;;;;4944595;28;20426;-96
2021/03/08 11:54:39;;;;;;;20.38;12.80;;;9.90;62.70;;;;;;4952622;29;20066;-91
2021/03/08 11:57:08;;;;;;;18.33;11.65;;;9.90;62.70;;;;;;4943729;29;20027;-89
2021/03/08 11:59:34;;;;;;;17.60;11.15;;;9.90;62.80;;;;;;4954105;28;20621;-89
2021/03/08 12:02:00;;;;;;;18.63;11.98;;;9.90;62.80;;;;;;4953118;28;20031;-89
2021/03/08 12:04:26;;;;;;;19.95;12.48;;;9.90;62.90;;;;;;4947165;29;20066;-91
2021/03/08 12:06:53;;;;;;;19.63;12.95;;;9.90;62.90;;;;;;4954637;28;20063;-89
2021/03/08 12:09:19;;;;;;;20.10;13.23;;;9.80;62.90;;;;;;4946552;28;20030;-88
2021/03/08 12:11:45;;;;;;;17.17;10.77;;;9.70;62.90;;;;;;4946051;28;20027;-89
2021/03/08 12:14:11;;;;;;;23.15;14.13;;;9.60;63.10;;;;;;4948376;28;20475;-88
2021/03/08 12:16:36;;;;;;;21.83;13.40;;;9.50;63.30;;;;;;4948090;28;20078;-90
2021/03/08 12:19:02;;;;;;;18.70;11.38;;;9.50;63.60;;;;;;4953351;28;20077;-88
2021/03/08 12:21:30;;;;;;;20.58;12.27;;;9.60;63.70;;;;;;4947387;28;20063;-91
2021/03/08 12:23:56;;;;;;;20.80;11.73;;;9.60;63.60;;;;;;4948910;28;20031;-88
2021/03/08 12:26:22;;;;;;;18.83;11.80;;;9.70;63.40;;;;;;4946764;29;20050;-87
2021/03/08 12:28:47;;;;;;;20.67;11.77;;;9.80;63.10;;;;;;4955191;28;20051;-88
2021/03/08 12:31:14;;;;;;;23.42;14.65;;;9.90;62.90;;;;;;4949072;28;20068;-88
2021/03/08 12:33:39;;;;;;;17.30;11.35;;;9.80;62.90;;;;;;4949308;28;20027;-89
2021/03/08 12:36:09;;;;;;;17.67;10.77;;;9.90;63.00;;;;;;4955327;28;20034;-87
2021/03/08 12:38:35;;;;;;;16.02;10.02;;;10.00;62.90;;;;;;4949913;28;20125;-88
2021/03/08 12:41:03;;;;;;;21.27;13.02;;;10.10;62.70;;;;;;4956325;28;20131;-88
2021/03/08 12:43:29;;;;;;;18.10;11.38;;;10.10;62.40;;;;;;4953213;28;20035;-90
2021/03/08 12:45:55;;;;;;;23.05;14.90;;;10.20;62.20;;;;;;4939966;29;20035;-88
2021/03/08 12:48:21;;;;;;;16.10;11.23;;;10.20;61.80;;;;;;4950792;28;20135;-88
2021/03/08 12:50:46;;;;;;;16.45;10.50;;;10.30;61.70;;;;;;4951611;28;20026;-88
2021/03/08 12:53:12;;;;;;;16.88;10.02;;;10.30;61.50;;;;;;4953042;28;20081;-89
2021/03/08 12:55:38;;;;;;;16.48;11.07;;;10.40;61.50;;;;;;4946607;28;20024;-87
2021/03/08 12:58:05;;;;;;;20.92;12.60;;;10.40;61.40;;;;;;4943443;28;20174;-86
2021/03/08 13:00:33;;;;;;;16.80;11.43;;;10.40;61.20;;;;;;4948200;28;20031;-87
2021/03/08 13:02:58;;;;;;;16.70;11.48;;;10.40;61.00;;;;;;4926473;29;20028;-86
2021/03/08 13:05:24;;;;;;;14.52;9.75;;;10.40;61.20;;;;;;4940729;28;20039;-87
2021/03/08 13:07:50;;;;;;;16.15;9.73;;;10.50;61.10;;;;;;4957914;28;20030;-88
2021/03/08 13:10:16;;;;;;;15.70;9.95;;;10.50;61.10;;;;;;4950005;28;20093;-87
2021/03/08 13:12:42;;;;;;;17.95;11.75;;;10.50;61.00;;;;;;4954999;28;20027;-89
2021/03/08 13:15:08;;;;;;;17.90;11.77;;;10.50;60.80;;;;;;4937813;29;20024;-89
2021/03/08 13:17:34;;;;;;;18.98;11.90;;;10.50;60.70;;;;;;4942391;28;20122;-87
2021/03/08 13:20:00;;;;;;;17.80;10.98;;;10.40;60.60;;;;;;4941226;29;20028;-87
2021/03/08 13:22:26;;;;;;;14.30;9.65;;;10.40;60.80;;;;;;4941998;28;20049;-87
2021/03/08 13:24:53;;;;;;;18.15;11.35;;;10.50;60.90;;;;;;4943332;28;20027;-86
2021/03/08 13:27:20;;;;;;;16.13;11.60;;;10.50;60.70;;;;;;4943683;29;20059;-90
2021/03/08 13:29:47;;;;;;;16.65;10.80;;;10.50;60.70;;;;;;4951132;28;20041;-89
2021/03/08 13:32:13;;;;;;;10.48;7.80;;;10.50;60.70;;;;;;4932178;28;20506;-90
2021/03/08 13:34:41;;;;;;;17.85;11.90;;;10.50;60.60;;;;;;4936979;28;20130;-89
2021/03/08 13:37:06;;;;;;;17.63;10.93;;;10.40;60.40;;;;;;4953901;28;20019;-88